createdAt,value
2023-01-13T00:00:51.129Z,6.32
2023-01-13T00:01:54.387Z,7.28
2023-01-13T00:02:57.689Z,5.93
2023-01-13T00:04:01.381Z,6.47
2023-01-13T00:05:05.241Z,5.80
2023-01-13T00:06:12.357Z,5.63
2023-01-13T00:07:15.512Z,5.63
2023-01-13T00:08:18.720Z,5.32
2023-01-13T00:09:21.815Z,6.80
2023-01-13T00:10:25.120Z,6.30
2023-01-13T00:11:28.465Z,6.57
2023-01-13T00:12:31.626Z,6.50
2023-01-13T00:13:35.636Z,6.22
2023-01-13T00:14:38.856Z,6.35
2023-01-13T00:15:42.325Z,5.95
2023-01-13T00:16:45.537Z,6.43
2023-01-13T00:17:48.938Z,6.05
2023-01-13T00:18:52.091Z,5.85
2023-01-13T00:19:57.662Z,6.72
2023-01-13T00:21:06.458Z,6.18
2023-01-13T00:22:09.746Z,6.15
2023-01-13T00:23:12.934Z,6.00
2023-01-13T00:24:16.299Z,6.20
2023-01-13T00:25:19.477Z,5.75
2023-01-13T00:26:26.641Z,6.45
2023-01-13T00:27:31.661Z,6.15
2023-01-13T00:28:35.139Z,5.93
2023-01-13T00:29:38.329Z,6.50
2023-01-13T00:30:41.470Z,6.65
2023-01-13T00:31:44.814Z,6.47
2023-01-13T00:32:48.041Z,6.35
2023-01-13T00:33:51.428Z,6.43
2023-01-13T00:34:54.859Z,5.85
2023-01-13T00:35:59.983Z,6.78
2023-01-13T00:37:03.190Z,7.25
2023-01-13T00:38:06.309Z,6.72
2023-01-13T00:39:09.602Z,5.93
2023-01-13T00:40:13.367Z,6.13
2023-01-13T00:41:23.088Z,6.43
2023-01-13T00:42:44.979Z,6.18
2023-01-13T00:43:49.487Z,5.25
2023-01-13T00:44:52.953Z,6.00
2023-01-13T00:45:56.442Z,5.85
2023-01-13T00:46:59.657Z,5.30
2023-01-13T00:48:03.303Z,6.05
2023-01-13T00:49:06.894Z,5.78
2023-01-13T00:50:11.206Z,5.85
2023-01-13T00:51:17.888Z,6.13
2023-01-13T00:52:21.051Z,6.47
2023-01-13T00:53:25.212Z,5.38
2023-01-13T00:54:28.340Z,6.03
2023-01-13T00:55:33.075Z,6.00
2023-01-13T00:56:41.012Z,6.43
2023-01-13T00:57:44.459Z,5.95
2023-01-13T00:58:48.788Z,6.90
2023-01-13T00:59:51.976Z,6.88
2023-01-13T01:00:55.233Z,6.22
2023-01-13T01:01:58.542Z,6.28
2023-01-13T01:03:01.827Z,6.22
2023-01-13T01:04:05.497Z,6.32
2023-01-13T01:05:10.216Z,5.82
2023-01-13T01:06:21.308Z,5.93
2023-01-13T01:07:24.461Z,6.32
2023-01-13T01:08:27.741Z,5.82
2023-01-13T01:09:33.581Z,6.72
2023-01-13T01:10:36.796Z,5.38
2023-01-13T01:11:40.394Z,6.03
2023-01-13T01:12:43.596Z,6.28
2023-01-13T01:13:47.566Z,6.82
2023-01-13T01:14:50.752Z,5.82
2023-01-13T01:15:53.932Z,5.82
2023-01-13T01:16:57.177Z,5.38
2023-01-13T01:18:00.424Z,6.22
2023-01-13T01:19:05.154Z,5.60
2023-01-13T01:20:09.609Z,6.35
2023-01-13T01:21:14.019Z,6.25
2023-01-13T01:22:17.158Z,5.30
2023-01-13T01:23:20.372Z,6.20
2023-01-13T01:24:23.604Z,5.28
2023-01-13T01:25:26.871Z,6.30
2023-01-13T01:26:31.538Z,6.07
2023-01-13T01:27:34.921Z,5.97
2023-01-13T01:28:39.189Z,5.55
2023-01-13T01:29:42.340Z,6.15
2023-01-13T01:30:45.517Z,6.03
2023-01-13T01:31:48.771Z,5.65
2023-01-13T01:32:51.958Z,5.75
2023-01-13T01:33:55.773Z,6.05
2023-01-13T01:34:59.016Z,6.15
2023-01-13T01:36:03.660Z,6.00
2023-01-13T01:37:07.073Z,5.72
2023-01-13T01:38:10.396Z,6.40
2023-01-13T01:39:13.573Z,5.40
2023-01-13T01:40:17.301Z,5.88
2023-01-13T01:41:24.169Z,6.13
2023-01-13T01:42:46.189Z,5.75
2023-01-13T01:43:59.592Z,6.22
2023-01-13T01:45:40.009Z,5.10
2023-01-13T01:46:45.129Z,6.03
2023-01-13T01:47:58.662Z,6.10
2023-01-13T01:49:27.437Z,5.65
2023-01-13T01:50:31.205Z,5.28
2023-01-13T01:51:43.910Z,5.40
2023-01-13T01:52:57.588Z,5.72
2023-01-13T01:54:02.761Z,6.28
2023-01-13T01:55:27.950Z,5.55
2023-01-13T01:56:33.631Z,5.70
2023-01-13T01:58:08.684Z,6.10
2023-01-13T01:59:12.709Z,5.47
2023-01-13T02:00:16.598Z,5.68
2023-01-13T02:01:20.460Z,4.97
2023-01-13T02:02:23.898Z,5.70
2023-01-13T02:03:27.189Z,5.85
2023-01-13T02:04:37.916Z,5.00
2023-01-13T02:05:41.400Z,5.38
2023-01-13T02:06:46.881Z,5.43
2023-01-13T02:07:54.474Z,5.57
2023-01-13T02:08:59.792Z,5.60
2023-01-13T02:10:08.643Z,5.10
2023-01-13T02:11:54.104Z,5.60
2023-01-13T02:13:01.408Z,5.00
2023-01-13T02:14:04.593Z,5.78
2023-01-13T02:15:10.892Z,5.40
2023-01-13T02:16:22.748Z,5.43
2023-01-13T02:17:54.591Z,5.28
2023-01-13T02:19:13.935Z,5.30
2023-01-13T02:20:36.939Z,5.13
2023-01-13T02:22:30.840Z,5.80
2023-01-13T02:24:22.082Z,5.05
2023-01-13T02:25:45.758Z,5.20
2023-01-13T02:27:18.541Z,5.22
2023-01-13T02:29:10.500Z,4.90
2023-01-13T02:30:56.606Z,4.88
2023-01-13T02:32:20.328Z,4.72
2023-01-13T02:33:34.486Z,5.38
2023-01-13T02:34:46.540Z,5.05
2023-01-13T02:36:36.104Z,5.03
2023-01-13T02:37:43.803Z,4.93
2023-01-13T02:39:07.586Z,5.75
2023-01-13T02:40:59.442Z,5.25
2023-01-13T02:42:27.574Z,4.55
2023-01-13T02:43:54.851Z,5.82
2023-01-13T02:45:09.624Z,4.72
2023-01-13T02:46:27.549Z,4.28
2023-01-13T02:47:38.004Z,5.10
2023-01-13T02:48:46.123Z,5.40
2023-01-13T02:50:02.558Z,4.93
2023-01-13T02:51:13.942Z,5.68
2023-01-13T02:52:43.856Z,4.47
2023-01-13T02:53:52.612Z,4.15
2023-01-13T02:55:04.474Z,4.65
2023-01-13T02:56:09.998Z,4.93
2023-01-13T02:57:17.314Z,4.47
2023-01-13T02:58:29.065Z,4.10
2023-01-13T02:59:32.833Z,4.70
2023-01-13T03:00:38.045Z,5.18
2023-01-13T03:01:42.781Z,4.50
2023-01-13T03:02:47.774Z,5.25
2023-01-13T03:03:50.900Z,5.38
2023-01-13T03:05:00.188Z,4.78
2023-01-13T03:06:25.918Z,4.55
2023-01-13T03:07:34.847Z,5.05
2023-01-13T03:09:12.233Z,4.40
2023-01-13T03:10:39.494Z,4.60
2023-01-13T03:12:07.641Z,4.85
2023-01-13T03:13:38.387Z,4.78
2023-01-13T03:15:25.412Z,4.80
2023-01-13T03:16:59.363Z,4.68
2023-01-13T03:18:37.964Z,4.70
2023-01-13T03:20:03.637Z,4.50
2023-01-13T03:21:19.469Z,4.18
2023-01-13T03:22:34.561Z,4.72
2023-01-13T03:23:48.080Z,4.63
2023-01-13T03:25:06.421Z,3.85
2023-01-13T03:26:33.885Z,4.53
2023-01-13T03:28:04.453Z,4.80
2023-01-13T03:29:27.906Z,4.05
2023-01-13T03:30:47.726Z,4.68
2023-01-13T03:32:14.535Z,3.97
2023-01-13T03:33:26.347Z,4.50
2023-01-13T03:35:00.679Z,4.88
2023-01-13T03:36:10.200Z,3.97
2023-01-13T03:37:17.757Z,4.03
2023-01-13T03:38:40.670Z,4.38
2023-01-13T03:39:52.408Z,4.38
2023-01-13T03:41:05.366Z,4.13
2023-01-13T03:42:19.035Z,4.88
2023-01-13T03:43:50.322Z,4.10
2023-01-13T03:45:08.292Z,5.07
2023-01-13T03:46:37.483Z,4.03
2023-01-13T03:47:50.810Z,4.15
2023-01-13T03:48:58.755Z,4.60
2023-01-13T03:50:28.363Z,4.75
2023-01-13T03:51:34.926Z,4.65
2023-01-13T03:52:53.295Z,4.22
2023-01-13T03:54:01.351Z,4.50
2023-01-13T03:55:16.004Z,4.32
2023-01-13T03:56:29.045Z,3.92
2023-01-13T03:57:39.589Z,4.88
2023-01-13T03:58:47.821Z,5.25
2023-01-13T03:59:55.486Z,4.20
2023-01-13T04:01:29.347Z,4.40
2023-01-13T04:02:57.840Z,4.50
2023-01-13T04:04:06.239Z,4.15
2023-01-13T04:05:10.957Z,4.68
2023-01-13T04:06:38.295Z,4.60
2023-01-13T04:08:22.066Z,4.22
2023-01-13T04:09:54.499Z,4.43
2023-01-13T04:11:17.198Z,4.03
2023-01-13T04:12:54.200Z,3.90
2023-01-13T04:13:58.268Z,4.38
2023-01-13T04:15:01.537Z,4.43
2023-01-13T04:16:07.869Z,3.65
2023-01-13T04:17:11.739Z,4.18
2023-01-13T04:18:31.279Z,4.22
2023-01-13T04:19:34.673Z,4.60
2023-01-13T04:20:39.891Z,4.70
2023-01-13T04:21:43.017Z,3.72
2023-01-13T04:22:46.318Z,5.15
2023-01-13T04:23:51.592Z,4.72
2023-01-13T04:24:54.694Z,4.30
2023-01-13T04:25:57.894Z,4.55
2023-01-13T04:27:01.171Z,4.43
2023-01-13T04:28:04.729Z,4.45
2023-01-13T04:29:07.885Z,4.50
2023-01-13T04:30:11.817Z,6.40
2023-01-13T04:31:14.975Z,5.30
2023-01-13T04:32:18.582Z,5.63
2023-01-13T04:33:21.795Z,4.88
2023-01-13T04:34:26.854Z,5.10
2023-01-13T04:35:33.024Z,4.90
2023-01-13T04:36:36.189Z,4.20
2023-01-13T04:37:39.425Z,4.90
2023-01-13T04:38:42.758Z,4.50
2023-01-13T04:39:46.615Z,4.55
2023-01-13T04:40:49.898Z,4.32
2023-01-13T04:41:59.309Z,3.70
2023-01-13T04:43:02.782Z,3.67
2023-01-13T04:44:06.074Z,4.47
2023-01-13T04:45:10.224Z,3.65
2023-01-13T04:46:13.637Z,4.82
2023-01-13T04:47:16.886Z,4.28
2023-01-13T04:48:20.117Z,4.90
2023-01-13T04:49:23.548Z,4.30
2023-01-13T04:50:27.297Z,3.95
2023-01-13T04:51:30.527Z,4.18
2023-01-13T04:52:33.852Z,3.63
2023-01-13T04:53:37.082Z,4.40
2023-01-13T04:54:40.214Z,5.05
2023-01-13T04:55:45.268Z,4.18
2023-01-13T04:56:49.010Z,4.00
2023-01-13T04:57:52.673Z,3.78
2023-01-13T04:58:56.007Z,4.18
2023-01-13T04:59:59.263Z,3.78
2023-01-13T05:01:02.325Z,3.47
2023-01-13T05:02:08.573Z,3.90
2023-01-13T05:03:11.974Z,3.80
2023-01-13T05:04:15.644Z,4.00
2023-01-13T05:05:19.389Z,4.82
2023-01-13T05:06:22.791Z,3.60
2023-01-13T05:07:26.126Z,4.00
2023-01-13T05:08:29.267Z,3.83
2023-01-13T05:09:32.455Z,4.03
2023-01-13T05:10:35.601Z,3.90
2023-01-13T05:11:57.477Z,3.63
2023-01-13T05:13:19.276Z,3.30
2023-01-13T05:14:40.767Z,4.00
2023-01-13T05:16:22.165Z,2.97
2023-01-13T05:17:26.224Z,3.90
2023-01-13T05:18:30.996Z,4.15
2023-01-13T05:19:39.268Z,3.45
2023-01-13T05:20:42.437Z,4.00
2023-01-13T05:22:04.286Z,3.40
2023-01-13T05:23:26.336Z,3.40
2023-01-13T05:24:48.279Z,3.83
2023-01-13T05:25:51.457Z,3.80
2023-01-13T05:26:54.682Z,3.33
2023-01-13T05:28:01.533Z,3.97
2023-01-13T05:29:04.645Z,3.45
2023-01-13T05:30:09.207Z,3.47
2023-01-13T05:31:14.951Z,4.20
2023-01-13T05:32:18.332Z,3.65
2023-01-13T05:33:21.566Z,4.07
2023-01-13T05:34:24.625Z,4.25
2023-01-13T05:35:29.265Z,3.85
2023-01-13T05:36:32.355Z,4.35
2023-01-13T05:37:35.961Z,4.28
2023-01-13T05:38:39.108Z,3.60
2023-01-13T05:40:01.620Z,4.43
2023-01-13T05:41:23.555Z,5.60
2023-01-13T05:42:45.520Z,5.95
2023-01-13T05:43:48.807Z,5.47
2023-01-13T05:44:51.905Z,6.00
2023-01-13T05:46:09.259Z,5.40
2023-01-13T05:47:12.522Z,6.15
2023-01-13T05:48:16.843Z,5.30
2023-01-13T05:49:19.903Z,5.53
2023-01-13T05:50:23.189Z,5.43
2023-01-13T05:51:26.513Z,5.38
2023-01-13T05:52:29.864Z,5.28
2023-01-13T05:53:34.482Z,5.03
2023-01-13T05:54:37.563Z,4.50
2023-01-13T05:55:42.441Z,4.20
2023-01-13T05:56:45.636Z,4.60
2023-01-13T05:57:48.934Z,4.55
2023-01-13T05:58:52.071Z,3.45
2023-01-13T05:59:55.340Z,3.65
2023-01-13T06:01:07.225Z,3.78
2023-01-13T06:02:10.534Z,3.95
2023-01-13T06:03:14.338Z,4.20
2023-01-13T06:04:17.686Z,3.60
2023-01-13T06:05:20.838Z,3.53
2023-01-13T06:06:24.443Z,3.58
2023-01-13T06:07:27.646Z,3.92
2023-01-13T06:08:31.899Z,3.83
2023-01-13T06:09:35.079Z,4.45
2023-01-13T06:10:38.390Z,4.18
2023-01-13T06:11:41.501Z,3.72
2023-01-13T06:12:44.797Z,4.30
2023-01-13T06:13:47.874Z,4.15
2023-01-13T06:14:51.009Z,3.70
2023-01-13T06:16:01.675Z,4.68
2023-01-13T06:17:04.879Z,4.00
2023-01-13T06:18:08.099Z,5.20
2023-01-13T06:19:13.285Z,4.20
2023-01-13T06:20:17.631Z,5.70
2023-01-13T06:21:20.824Z,4.78
2023-01-13T06:22:33.019Z,4.03
2023-01-13T06:23:38.674Z,4.28
2023-01-13T06:24:42.240Z,3.67
2023-01-13T06:25:55.522Z,3.42
2023-01-13T06:26:58.827Z,3.72
2023-01-13T06:28:03.133Z,3.50
2023-01-13T06:29:06.713Z,4.07
2023-01-13T06:30:11.006Z,3.85
2023-01-13T06:31:14.403Z,3.42
2023-01-13T06:32:29.518Z,3.25
2023-01-13T06:33:49.565Z,4.10
2023-01-13T06:34:58.940Z,4.20
2023-01-13T06:36:12.300Z,4.10
2023-01-13T06:37:19.990Z,3.35
2023-01-13T06:38:27.007Z,4.03
2023-01-13T06:39:31.809Z,3.42
2023-01-13T06:40:35.865Z,3.78
2023-01-13T06:41:57.737Z,3.40
2023-01-13T06:43:16.960Z,3.22
2023-01-13T06:44:23.166Z,3.15
2023-01-13T06:45:28.696Z,3.60
2023-01-13T06:46:32.153Z,3.47
2023-01-13T06:47:35.291Z,3.70
2023-01-13T06:48:38.455Z,3.78
2023-01-13T06:49:41.692Z,3.20
2023-01-13T06:50:45.245Z,3.65
2023-01-13T06:51:48.762Z,3.30
2023-01-13T06:52:51.989Z,3.25
2023-01-13T06:53:55.371Z,2.95
2023-01-13T06:54:58.595Z,3.65
2023-01-13T06:56:01.718Z,4.03
2023-01-13T06:57:04.954Z,3.83
2023-01-13T06:58:08.548Z,3.45
2023-01-13T06:59:11.924Z,3.78
2023-01-13T07:00:15.950Z,3.03
2023-01-13T07:01:19.298Z,3.80
2023-01-13T07:02:22.706Z,3.35
2023-01-13T07:03:26.004Z,3.88
2023-01-13T07:04:29.118Z,2.97
2023-01-13T07:05:32.577Z,3.25
2023-01-13T07:06:35.695Z,3.33
2023-01-13T07:07:39.365Z,3.65
2023-01-13T07:08:42.472Z,3.97
2023-01-13T07:09:45.578Z,3.35
2023-01-13T07:10:48.826Z,4.05
2023-01-13T07:11:52.796Z,3.50
2023-01-13T07:13:14.394Z,4.65
2023-01-13T07:14:36.048Z,3.80
2023-01-13T07:15:39.156Z,3.90
2023-01-13T07:16:44.606Z,3.67
2023-01-13T07:17:48.185Z,3.15
2023-01-13T07:18:51.388Z,4.18
2023-01-13T07:19:54.770Z,3.55
2023-01-13T07:21:03.752Z,3.25
2023-01-13T07:22:06.942Z,3.63
2023-01-13T07:23:10.303Z,4.22
2023-01-13T07:24:13.631Z,3.55
2023-01-13T07:25:16.840Z,3.83
2023-01-13T07:26:19.909Z,3.90
2023-01-13T07:27:23.022Z,3.55
2023-01-13T07:28:28.224Z,3.40
2023-01-13T07:29:31.342Z,3.50
2023-01-13T07:30:34.462Z,3.50
2023-01-13T07:31:39.164Z,3.60
2023-01-13T07:32:42.470Z,3.75
2023-01-13T07:33:45.723Z,4.00
2023-01-13T07:34:49.036Z,4.18
2023-01-13T07:36:03.974Z,3.72
2023-01-13T07:37:07.332Z,3.70
2023-01-13T07:38:10.958Z,4.60
2023-01-13T07:39:14.172Z,3.67
2023-01-13T07:40:17.747Z,3.80
2023-01-13T07:41:39.477Z,4.00
2023-01-13T07:43:01.062Z,3.20
2023-01-13T07:44:07.577Z,4.20
2023-01-13T07:45:12.450Z,4.00
2023-01-13T07:46:16.363Z,4.15
2023-01-13T07:47:23.444Z,3.50
2023-01-13T07:48:27.951Z,3.60
2023-01-13T07:49:31.120Z,4.07
2023-01-13T07:50:34.356Z,4.15
2023-01-13T07:51:39.296Z,3.75
2023-01-13T07:52:42.378Z,3.95
2023-01-13T07:53:45.516Z,3.38
2023-01-13T07:54:49.773Z,3.58
2023-01-13T07:55:57.238Z,3.88
2023-01-13T07:57:00.405Z,3.83
2023-01-13T07:58:03.486Z,2.70
2023-01-13T07:59:06.651Z,3.10
2023-01-13T08:00:12.870Z,2.92
2023-01-13T08:01:19.876Z,3.70
2023-01-13T08:02:23.311Z,2.95
2023-01-13T08:03:27.537Z,3.85
2023-01-13T08:04:30.749Z,3.58
2023-01-13T08:05:36.396Z,3.08
2023-01-13T08:06:42.545Z,4.13
2023-01-13T08:07:45.769Z,3.25
2023-01-13T08:08:48.914Z,3.38
2023-01-13T08:09:52.169Z,2.95
2023-01-13T08:10:58.466Z,3.50
2023-01-13T08:12:19.919Z,3.15
2023-01-13T08:13:23.159Z,2.47
2023-01-13T08:14:26.403Z,3.13
2023-01-13T08:15:31.608Z,3.28
2023-01-13T08:16:35.110Z,3.38
2023-01-13T08:17:38.345Z,3.38
2023-01-13T08:18:42.321Z,3.08
2023-01-13T08:19:45.442Z,3.60
2023-01-13T08:20:50.164Z,3.40
2023-01-13T08:21:53.281Z,3.83
2023-01-13T08:22:59.382Z,3.67
2023-01-13T08:24:02.547Z,3.40
2023-01-13T08:25:06.482Z,2.83
2023-01-13T08:26:16.411Z,3.17
2023-01-13T08:27:20.603Z,3.45
2023-01-13T08:28:24.366Z,3.00
2023-01-13T08:29:27.433Z,2.92
2023-01-13T08:30:31.112Z,3.78
2023-01-13T08:31:34.239Z,3.50
2023-01-13T08:32:37.413Z,3.25
2023-01-13T08:33:41.284Z,3.22
2023-01-13T08:34:45.068Z,4.15
2023-01-13T08:35:49.201Z,3.95
2023-01-13T08:36:52.409Z,4.32
2023-01-13T08:37:55.622Z,3.85
2023-01-13T08:38:58.851Z,4.00
2023-01-13T08:40:01.945Z,4.20
2023-01-13T08:41:14.676Z,4.95
2023-01-13T08:42:17.788Z,3.50
2023-01-13T08:43:21.035Z,3.15
2023-01-13T08:44:28.603Z,3.92
2023-01-13T08:45:31.897Z,3.53
2023-01-13T08:46:36.204Z,3.85
2023-01-13T08:47:39.382Z,3.55
2023-01-13T08:48:42.506Z,3.50
2023-01-13T08:49:45.868Z,3.67
2023-01-13T08:50:49.008Z,4.10
2023-01-13T08:51:53.810Z,3.33
2023-01-13T08:52:57.381Z,3.88
2023-01-13T08:54:00.760Z,3.25
2023-01-13T08:55:04.912Z,3.55
2023-01-13T08:56:13.210Z,3.70
2023-01-13T08:57:19.475Z,3.72
2023-01-13T08:58:23.357Z,4.43
2023-01-13T08:59:26.730Z,3.22
2023-01-13T09:00:29.893Z,4.30
2023-01-13T09:01:34.262Z,3.63
2023-01-13T09:02:38.791Z,4.05
2023-01-13T09:03:42.010Z,4.63
2023-01-13T09:04:46.249Z,4.60
2023-01-13T09:05:49.530Z,3.95
2023-01-13T09:06:52.967Z,4.13
2023-01-13T09:07:56.131Z,3.90
2023-01-13T09:09:00.617Z,3.35
2023-01-13T09:10:07.211Z,3.65
2023-01-13T09:11:45.038Z,3.13
2023-01-13T09:13:06.555Z,3.72
2023-01-13T09:14:09.685Z,3.10
2023-01-13T09:15:13.637Z,3.22
2023-01-13T09:16:16.805Z,3.17
2023-01-13T09:17:20.103Z,3.70
2023-01-13T09:18:23.359Z,3.60
2023-01-13T09:19:27.915Z,3.63
2023-01-13T09:20:31.006Z,4.00
2023-01-13T09:21:34.262Z,3.90
2023-01-13T09:22:37.741Z,3.75
2023-01-13T09:23:40.926Z,3.67
2023-01-13T09:24:45.486Z,4.25
2023-01-13T09:25:49.326Z,2.95
2023-01-13T09:26:53.300Z,3.63
2023-01-13T09:27:57.519Z,4.13
2023-01-13T09:29:00.791Z,3.53
2023-01-13T09:30:05.651Z,3.55
2023-01-13T09:31:09.157Z,3.15
2023-01-13T09:32:14.557Z,2.83
2023-01-13T09:33:36.181Z,3.90
2023-01-13T09:34:58.767Z,3.40
2023-01-13T09:36:02.224Z,3.47
2023-01-13T09:37:08.165Z,3.30
2023-01-13T09:38:11.370Z,3.75
2023-01-13T09:39:15.189Z,3.85
2023-01-13T09:40:22.737Z,3.83
2023-01-13T09:41:47.777Z,3.53
2023-01-13T09:43:21.111Z,3.30
2023-01-13T09:44:58.060Z,3.83
2023-01-13T09:46:40.676Z,3.35
2023-01-13T09:48:24.591Z,3.53
2023-01-13T09:49:39.644Z,3.70
2023-01-13T09:50:54.703Z,3.20
2023-01-13T09:52:20.107Z,3.67
2023-01-13T09:53:36.900Z,3.08
2023-01-13T09:54:58.651Z,3.45
2023-01-13T09:56:02.229Z,3.72
2023-01-13T09:57:15.147Z,3.47
2023-01-13T09:58:19.409Z,3.33
2023-01-13T09:59:23.362Z,3.35
2023-01-13T10:00:39.401Z,3.75
2023-01-13T10:01:59.519Z,3.38
2023-01-13T10:03:31.125Z,3.08
2023-01-13T10:04:34.495Z,3.10
2023-01-13T10:05:57.758Z,3.38
2023-01-13T10:07:05.827Z,3.15
2023-01-13T10:08:26.735Z,3.65
2023-01-13T10:10:53.791Z,3.08
2023-01-13T10:12:18.397Z,2.60
2023-01-13T10:13:24.133Z,3.15
2023-01-13T10:14:50.112Z,3.50
2023-01-13T10:16:19.033Z,3.60
2023-01-13T10:17:40.159Z,3.10
2023-01-13T10:19:04.974Z,3.30
2023-01-13T10:20:33.325Z,3.67
2023-01-13T10:22:32.924Z,3.67
2023-01-13T10:24:13.589Z,3.17
2023-01-13T10:25:45.555Z,3.50
2023-01-13T10:26:57.289Z,3.75
2023-01-13T10:28:11.289Z,4.38
2023-01-13T10:29:28.176Z,4.10
2023-01-13T10:30:42.069Z,4.13
2023-01-13T10:31:45.224Z,3.90
2023-01-13T10:32:52.190Z,3.63
2023-01-13T10:34:01.687Z,4.00
2023-01-13T10:35:06.203Z,3.85
2023-01-13T10:36:11.995Z,3.72
2023-01-13T10:37:26.465Z,3.55
2023-01-13T10:39:10.121Z,3.45
2023-01-13T10:40:18.492Z,3.42
2023-01-13T10:41:27.735Z,3.45
2023-01-13T10:42:31.192Z,3.83
2023-01-13T10:43:34.324Z,3.05
2023-01-13T10:44:54.382Z,4.45
2023-01-13T10:46:11.019Z,4.07
2023-01-13T10:47:24.986Z,3.22
2023-01-13T10:48:41.837Z,3.70
2023-01-13T10:50:14.048Z,3.63
2023-01-13T10:51:37.987Z,3.42
2023-01-13T10:52:57.605Z,4.85
2023-01-13T10:54:02.831Z,3.80
2023-01-13T10:55:25.058Z,3.63
2023-01-13T10:56:33.399Z,3.83
2023-01-13T10:57:37.065Z,3.40
2023-01-13T10:58:40.187Z,3.78
2023-01-13T10:59:44.132Z,4.13
2023-01-13T11:00:49.352Z,3.83
2023-01-13T11:02:25.340Z,4.20
2023-01-13T11:03:42.988Z,3.58
2023-01-13T11:04:55.443Z,3.95
2023-01-13T11:06:00.433Z,4.18
2023-01-13T11:07:16.824Z,4.18
2023-01-13T11:08:30.371Z,3.67
2023-01-13T11:09:34.214Z,3.85
2023-01-13T11:10:48.134Z,3.78
2023-01-13T11:11:55.974Z,4.22
2023-01-13T11:13:14.787Z,4.38
2023-01-13T11:14:42.834Z,3.85
2023-01-13T11:16:15.598Z,3.83
2023-01-13T11:18:00.538Z,3.85
2023-01-13T11:19:14.189Z,4.18
2023-01-13T11:20:31.859Z,4.30
2023-01-13T11:22:12.538Z,4.50
2023-01-13T11:23:48.117Z,4.13
2023-01-13T11:24:58.870Z,4.18
2023-01-13T11:27:52.456Z,3.67
2023-01-13T11:29:11.315Z,3.28
2023-01-13T11:30:17.237Z,3.60
2023-01-13T11:31:29.673Z,3.72
2023-01-13T11:32:56.561Z,3.65
2023-01-13T11:34:36.523Z,3.25
2023-01-13T11:35:58.791Z,3.22
2023-01-13T11:37:09.935Z,3.75
2023-01-13T11:38:31.776Z,4.13
2023-01-13T11:39:58.119Z,3.65
2023-01-13T11:41:39.627Z,4.00
2023-01-13T11:43:18.776Z,3.47
2023-01-13T11:44:49.840Z,3.80
2023-01-13T11:46:59.775Z,3.17
2023-01-13T11:48:04.161Z,3.63
2023-01-13T11:49:10.632Z,3.70
2023-01-13T11:50:41.624Z,4.53
2023-01-13T11:53:30.955Z,3.83
2023-01-13T11:55:11.897Z,3.83
2023-01-13T11:57:15.399Z,4.50
2023-01-13T11:59:14.746Z,4.65
2023-01-13T12:00:31.598Z,3.75
2023-01-13T12:02:15.549Z,3.63
2023-01-13T12:03:38.521Z,3.83
2023-01-13T12:05:17.892Z,4.03
2023-01-13T12:06:44.533Z,4.20
2023-01-13T12:08:03.197Z,4.00
2023-01-13T12:10:05.073Z,4.53
2023-01-13T12:11:15.408Z,4.47
2023-01-13T12:12:51.732Z,4.15
2023-01-13T12:14:25.655Z,4.57
2023-01-13T12:15:48.337Z,4.28
2023-01-13T12:16:51.809Z,3.97
2023-01-13T12:18:45.116Z,3.85
2023-01-13T12:19:51.173Z,4.57
2023-01-13T12:21:20.987Z,5.15
2023-01-13T12:22:30.168Z,3.38
2023-01-13T12:23:36.960Z,3.65
2023-01-13T12:25:05.293Z,4.15
2023-01-13T12:26:18.977Z,4.03
2023-01-13T12:27:47.445Z,4.15
2023-01-13T12:29:01.095Z,4.40
2023-01-13T12:30:31.499Z,6.55
2023-01-13T12:31:38.900Z,4.25
2023-01-13T12:32:42.799Z,4.28
2023-01-13T12:34:08.796Z,4.13
2023-01-13T12:35:36.140Z,5.68
2023-01-13T12:36:51.024Z,4.85
2023-01-13T12:38:18.063Z,4.47
2023-01-13T12:39:52.600Z,4.03
2023-01-13T12:41:26.115Z,4.05
2023-01-13T12:43:11.200Z,3.58
2023-01-13T12:44:17.291Z,4.18
2023-01-13T12:45:28.636Z,4.03
2023-01-13T12:46:40.688Z,3.88
2023-01-13T12:47:48.703Z,3.95
2023-01-13T12:48:54.937Z,3.50
2023-01-13T12:50:26.776Z,4.22
2023-01-13T12:51:36.690Z,4.15
2023-01-13T12:52:45.933Z,3.97
2023-01-13T12:53:49.116Z,4.20
2023-01-13T12:54:53.391Z,4.22
2023-01-13T12:56:44.665Z,3.78
2023-01-13T12:59:21.498Z,3.13
2023-01-13T13:00:42.029Z,4.10
2023-01-13T13:01:48.370Z,4.20
2023-01-13T13:03:12.670Z,4.00
2023-01-13T13:04:41.380Z,3.97
2023-01-13T13:06:23.093Z,3.65
2023-01-13T13:07:41.593Z,3.50
2023-01-13T13:09:17.565Z,3.42
2023-01-13T13:11:01.603Z,4.10
2023-01-13T13:13:13.755Z,4.13
2023-01-13T13:14:39.674Z,3.53
2023-01-13T13:15:43.706Z,3.03
2023-01-13T13:16:53.381Z,3.60
2023-01-13T13:17:59.761Z,3.58
2023-01-13T13:19:21.427Z,4.25
2023-01-13T13:21:00.734Z,3.58
2023-01-13T13:22:22.689Z,3.47
2023-01-13T13:23:37.807Z,3.92
2023-01-13T13:24:48.669Z,3.72
2023-01-13T13:27:55.375Z,3.55
2023-01-13T13:29:19.084Z,3.70
2023-01-13T13:30:36.704Z,3.35
2023-01-13T13:32:06.631Z,3.70
2023-01-13T13:33:29.789Z,2.95
2023-01-13T13:35:36.378Z,3.78
2023-01-13T13:37:00.429Z,3.47
2023-01-13T13:38:50.863Z,3.42
2023-01-13T13:40:14.159Z,4.07
2023-01-13T13:41:43.134Z,3.80
2023-01-13T13:43:15.809Z,3.95
2023-01-13T13:44:48.221Z,4.30
2023-01-13T13:46:11.220Z,3.60
2023-01-13T13:47:14.720Z,3.70
2023-01-13T13:48:34.342Z,3.22
2023-01-13T13:49:52.953Z,4.20
2023-01-13T13:51:04.926Z,3.30
2023-01-13T13:52:17.420Z,3.22
2023-01-13T13:53:21.115Z,4.35
2023-01-13T13:54:24.347Z,3.70
2023-01-13T13:55:29.452Z,3.92
2023-01-13T13:56:40.717Z,3.28
2023-01-13T13:57:49.670Z,3.63
2023-01-13T13:58:53.301Z,3.22
2023-01-13T14:00:00.491Z,3.65
2023-01-13T14:01:05.452Z,3.70
2023-01-13T14:02:34.590Z,3.63
2023-01-13T14:03:40.159Z,3.13
2023-01-13T14:04:43.694Z,3.65
2023-01-13T14:06:01.126Z,3.97
2023-01-13T14:07:22.096Z,3.50
2023-01-13T14:08:31.513Z,3.40
2023-01-13T14:09:45.152Z,3.55
2023-01-13T14:10:48.692Z,3.28
2023-01-13T14:12:15.423Z,4.00
2023-01-13T14:13:31.822Z,4.05
2023-01-13T14:14:35.195Z,4.32
2023-01-13T14:15:39.890Z,3.85
2023-01-13T14:16:43.328Z,4.10
2023-01-13T14:17:46.992Z,4.20
2023-01-13T14:18:50.251Z,4.18
2023-01-13T14:20:01.181Z,4.38
2023-01-13T14:21:18.364Z,4.13
2023-01-13T14:22:22.225Z,3.83
2023-01-13T14:23:32.479Z,4.28
2023-01-13T14:24:47.809Z,4.40
2023-01-13T14:25:52.661Z,4.05
2023-01-13T14:27:16.300Z,3.60
2023-01-13T14:28:28.271Z,3.17
2023-01-13T14:29:31.951Z,4.20
2023-01-13T14:30:35.721Z,3.47
2023-01-13T14:31:39.818Z,3.83
2023-01-13T14:32:43.301Z,4.30
2023-01-13T14:33:51.802Z,3.80
2023-01-13T14:34:55.128Z,4.40
2023-01-13T14:36:23.288Z,3.40
2023-01-13T14:37:42.047Z,3.90
2023-01-13T14:39:02.884Z,4.05
2023-01-13T14:41:27.974Z,3.90
2023-01-13T14:42:35.474Z,3.72
2023-01-13T14:43:47.483Z,3.80
2023-01-13T14:44:51.626Z,3.13
2023-01-13T14:46:03.943Z,4.13
2023-01-13T14:47:29.119Z,3.95
2023-01-13T14:48:37.707Z,3.45
2023-01-13T14:49:51.646Z,5.03
2023-01-13T14:50:54.877Z,3.85
2023-01-13T14:52:20.200Z,3.90
2023-01-13T14:53:46.498Z,3.80
2023-01-13T14:55:27.552Z,3.58
2023-01-13T14:56:44.855Z,3.70
2023-01-13T14:57:48.498Z,3.17
2023-01-13T14:58:51.639Z,4.07
2023-01-13T15:00:15.460Z,3.47
2023-01-13T15:01:36.473Z,3.85
2023-01-13T15:02:43.616Z,3.28
2023-01-13T15:03:51.000Z,4.30
2023-01-13T15:04:54.477Z,3.55
2023-01-13T15:05:57.976Z,3.55
2023-01-13T15:07:03.086Z,4.15
2023-01-13T15:08:12.334Z,3.50
2023-01-13T15:09:38.187Z,4.03
2023-01-13T15:11:16.008Z,3.78
2023-01-13T15:12:35.893Z,3.85
2023-01-13T15:13:53.566Z,3.72
2023-01-13T15:14:57.177Z,3.65
2023-01-13T15:16:08.354Z,4.28
2023-01-13T15:17:17.566Z,3.75
2023-01-13T15:18:20.694Z,4.13
2023-01-13T15:19:23.912Z,4.55
2023-01-13T15:20:27.824Z,3.95
2023-01-13T15:21:31.031Z,4.45
2023-01-13T15:22:34.105Z,4.90
2023-01-13T15:23:39.971Z,4.35
2023-01-13T15:24:43.143Z,4.43
2023-01-13T15:25:47.347Z,4.38
2023-01-13T15:26:50.873Z,4.70
2023-01-13T15:27:54.342Z,4.10
2023-01-13T15:28:59.320Z,3.45
2023-01-13T15:30:04.771Z,3.88
2023-01-13T15:31:09.524Z,4.55
2023-01-13T15:32:19.813Z,3.80
2023-01-13T15:33:23.580Z,4.32
2023-01-13T15:34:26.762Z,3.80
2023-01-13T15:35:30.249Z,3.72
2023-01-13T15:36:36.904Z,3.90
2023-01-13T15:37:40.888Z,3.38
2023-01-13T15:38:44.160Z,3.63
2023-01-13T15:39:47.539Z,4.07
2023-01-13T15:40:52.447Z,4.05
2023-01-13T15:42:15.168Z,3.70
2023-01-13T15:43:40.615Z,3.97
2023-01-13T15:45:02.241Z,4.47
2023-01-13T15:46:33.747Z,4.30
2023-01-13T15:47:36.988Z,3.95
2023-01-13T15:48:40.201Z,5.80
2023-01-13T15:49:45.220Z,4.75
2023-01-13T15:50:48.613Z,3.95
2023-01-13T15:51:52.329Z,4.10
2023-01-13T15:52:55.559Z,4.53
2023-01-13T15:54:02.492Z,4.97
2023-01-13T15:55:06.018Z,4.65
2023-01-13T15:56:22.277Z,4.70
2023-01-13T15:57:28.922Z,5.20
2023-01-13T15:58:32.114Z,4.28
2023-01-13T15:59:35.215Z,4.28
2023-01-13T16:00:38.691Z,4.93
2023-01-13T16:01:42.314Z,4.03
2023-01-13T16:02:46.167Z,4.00